createdAt,value
2018-03-16T00:00:19.576Z,8.51
2018-03-16T00:03:42.874Z,8.55
2018-03-16T00:07:06.170Z,8.62
2018-03-16T00:10:29.471Z,8.61
2018-03-16T00:13:53.540Z,8.58
2018-03-16T00:17:16.917Z,8.50
2018-03-16T00:20:40.213Z,8.39
2018-03-16T00:24:03.550Z,8.34
2018-03-16T00:27:26.924Z,8.08
2018-03-16T00:30:50.198Z,8.05
2018-03-16T00:34:14.330Z,8.02
2018-03-16T00:37:38.602Z,8.07
2018-03-16T00:41:01.914Z,8.20
2018-03-16T00:44:25.172Z,8.19
2018-03-16T00:47:49.207Z,8.09
2018-03-16T00:51:13.307Z,8.14
2018-03-16T00:54:36.618Z,8.19
2018-03-16T00:57:59.876Z,8.09
2018-03-16T01:01:23.958Z,8.12
2018-03-16T01:04:47.283Z,7.98
2018-03-16T01:08:11.370Z,7.95
2018-03-16T01:11:35.403Z,8.09
2018-03-16T01:14:59.532Z,7.98
2018-03-16T01:18:22.904Z,8.04
2018-03-16T01:21:46.162Z,8.01
2018-03-16T01:25:09.431Z,7.82
2018-03-16T01:28:32.709Z,7.66
2018-03-16T01:31:56.087Z,7.64
2018-03-16T01:35:20.166Z,7.51
2018-03-16T01:38:43.415Z,7.52
2018-03-16T01:42:06.752Z,7.41
2018-03-16T01:45:30.119Z,7.32
2018-03-16T01:48:53.439Z,7.31
2018-03-16T01:52:16.769Z,7.23
2018-03-16T01:55:40.819Z,7.11
2018-03-16T01:59:04.935Z,7.04
2018-03-16T02:02:28.214Z,6.93
2018-03-16T02:05:52.266Z,6.90
2018-03-16T02:09:15.587Z,6.88
2018-03-16T02:12:38.849Z,6.87
2018-03-16T02:16:02.167Z,6.85
2018-03-16T02:19:26.196Z,7.09
2018-03-16T02:22:50.259Z,7.02
2018-03-16T02:26:13.521Z,7.04
2018-03-16T02:29:36.775Z,6.98
2018-03-16T02:33:00.123Z,6.86
2018-03-16T02:36:23.400Z,6.68
2018-03-16T02:39:47.486Z,6.60
2018-03-16T02:43:11.573Z,6.66
2018-03-16T02:46:35.717Z,6.51
2018-03-16T02:49:59.843Z,6.46
2018-03-16T02:53:23.122Z,6.53
2018-03-16T02:56:47.185Z,6.43
2018-03-16T03:00:10.447Z,6.37
2018-03-16T03:03:33.716Z,6.44
2018-03-16T03:06:57.053Z,6.48
2018-03-16T03:10:20.346Z,6.54
2018-03-16T03:13:43.691Z,6.53
2018-03-16T03:17:07.021Z,6.55
2018-03-16T03:20:31.149Z,6.45
2018-03-16T03:23:54.446Z,6.43
2018-03-16T03:27:17.787Z,6.55
2018-03-16T03:30:41.090Z,6.39
2018-03-16T03:34:04.358Z,6.24
2018-03-16T03:37:27.664Z,6.14
2018-03-16T03:40:51.695Z,6.07
2018-03-16T03:44:15.765Z,6.06
2018-03-16T03:47:39.083Z,6.00
2018-03-16T03:51:02.383Z,5.89
2018-03-16T03:54:25.636Z,5.89
2018-03-16T03:57:49.759Z,5.87
2018-03-16T04:01:13.083Z,5.92
2018-03-16T04:04:37.176Z,5.79
2018-03-16T04:08:01.236Z,5.73
2018-03-16T04:11:24.620Z,5.77
2018-03-16T04:14:47.957Z,5.75
2018-03-16T04:18:11.199Z,5.74
2018-03-16T04:21:34.573Z,5.85
2018-03-16T04:24:57.877Z,5.78
2018-03-16T04:28:21.153Z,5.83
2018-03-16T04:31:44.452Z,5.97
2018-03-16T04:35:08.492Z,6.03
2018-03-16T04:38:32.524Z,6.03
2018-03-16T04:41:56.571Z,6.06
2018-03-16T04:45:19.909Z,6.16
2018-03-16T04:48:43.208Z,6.18
2018-03-16T04:52:06.508Z,6.31
2018-03-16T04:55:30.641Z,6.19
2018-03-16T04:58:53.940Z,6.31
2018-03-16T05:02:17.281Z,6.38
2018-03-16T05:05:41.412Z,6.27
2018-03-16T05:09:05.464Z,6.33
2018-03-16T05:12:29.528Z,6.37
2018-03-16T05:15:52.904Z,6.42
2018-03-16T05:19:16.240Z,6.58
2018-03-16T05:22:40.984Z,6.53
2018-03-16T05:26:05.118Z,6.46
2018-03-16T05:29:28.438Z,6.55
2018-03-16T05:32:51.755Z,6.60
2018-03-16T05:36:15.032Z,6.60
2018-03-16T05:39:39.162Z,6.58
2018-03-16T05:43:03.226Z,6.69
2018-03-16T05:46:26.580Z,6.62
2018-03-16T05:49:50.628Z,6.68
2018-03-16T05:53:13.951Z,6.69
2018-03-16T05:56:37.290Z,6.60
2018-03-16T06:00:00.661Z,6.60
2018-03-16T06:00:48.051Z,6.58
2018-03-16T06:04:50.861Z,6.56
2018-03-16T06:05:25.656Z,6.53
2018-03-16T06:06:00.950Z,10.65
2018-03-16T06:06:34.243Z,8.86
2018-03-16T06:12:05.720Z,23.71
2018-03-16T06:12:38.550Z,23.69
2018-03-16T06:13:58.592Z,23.51
2018-03-16T06:22:06.799Z,23.44
2018-03-16T06:23:44.526Z,23.60
2018-03-16T06:29:17.684Z,11.88
2018-03-16T06:29:51.017Z,11.26
2018-03-16T06:30:25.092Z,10.96
2018-03-16T06:30:58.441Z,10.66
2018-03-16T06:31:31.813Z,10.07
2018-03-16T06:32:05.188Z,9.78
2018-03-16T06:32:39.349Z,9.77
2018-03-16T06:33:12.644Z,9.53
2018-03-16T06:33:46.784Z,9.38
2018-03-16T06:34:20.077Z,9.31
2018-03-16T06:34:54.485Z,9.34
2018-03-16T06:35:27.775Z,9.26
2018-03-16T06:36:01.906Z,9.11
2018-03-16T06:36:35.699Z,9.12
2018-03-16T06:37:09.100Z,9.11
2018-03-16T06:37:42.403Z,8.90
2018-03-16T06:38:15.722Z,8.95
2018-03-16T06:38:49.836Z,8.81
2018-03-16T06:39:23.172Z,8.82
2018-03-16T06:39:56.408Z,8.81
2018-03-16T06:40:29.729Z,8.62
2018-03-16T06:41:03.075Z,8.59
2018-03-16T06:41:36.349Z,8.27
2018-03-16T06:42:09.684Z,8.39
2018-03-16T06:42:43.016Z,8.33
2018-03-16T06:43:16.289Z,8.40
2018-03-16T06:43:49.560Z,8.52
2018-03-16T06:44:22.865Z,8.55
2018-03-16T06:44:56.374Z,8.69
2018-03-16T06:45:30.211Z,8.70
2018-03-16T06:46:04.295Z,8.45
2018-03-16T06:46:37.668Z,8.53
2018-03-16T06:47:11.026Z,8.43
2018-03-16T06:47:45.076Z,8.94
2018-03-16T06:48:19.114Z,8.82
2018-03-16T06:48:52.461Z,8.60
2018-03-16T06:49:26.584Z,8.72
2018-03-16T06:50:00.097Z,8.73
2018-03-16T06:50:34.128Z,9.73
2018-03-16T06:51:07.407Z,11.10
2018-03-16T06:51:40.768Z,11.63
2018-03-16T06:52:14.090Z,10.90
2018-03-16T06:52:48.159Z,10.73
2018-03-16T06:53:21.446Z,10.57
2018-03-16T06:53:54.744Z,10.22
2018-03-16T06:54:28.796Z,9.88
2018-03-16T06:55:02.905Z,9.73
2018-03-16T06:55:36.409Z,9.66
2018-03-16T06:56:09.715Z,9.52
2018-03-16T06:56:43.772Z,9.30
2018-03-16T06:57:17.174Z,9.16
2018-03-16T06:57:50.611Z,9.21
2018-03-16T06:58:23.955Z,9.09
2018-03-16T06:58:58.053Z,8.98
2018-03-16T06:59:32.706Z,8.73
2018-03-16T07:00:06.847Z,8.79
2018-03-16T07:00:40.144Z,8.73
2018-03-16T07:01:14.284Z,8.62
2018-03-16T07:01:47.569Z,8.55
2018-03-16T07:02:20.884Z,8.52
2018-03-16T07:02:54.267Z,8.55
2018-03-16T07:03:28.430Z,8.52
2018-03-16T07:04:01.787Z,8.58
2018-03-16T07:04:35.885Z,8.65
2018-03-16T07:05:10.012Z,8.70
2018-03-16T07:05:43.306Z,8.72
2018-03-16T07:06:17.494Z,8.66
2018-03-16T07:06:50.871Z,8.84
2018-03-16T07:07:24.197Z,8.76
2018-03-16T07:07:57.510Z,8.68
2018-03-16T07:08:31.624Z,8.71
2018-03-16T07:09:05.024Z,8.78
2018-03-16T07:09:38.377Z,8.67
2018-03-16T07:10:12.434Z,8.56
2018-03-16T07:10:46.534Z,8.50
2018-03-16T07:11:20.650Z,8.50
2018-03-16T07:11:53.988Z,8.48
2018-03-16T07:12:28.258Z,8.38
2018-03-16T07:13:03.552Z,8.50
2018-03-16T07:13:38.288Z,8.51
2018-03-16T07:14:11.720Z,8.48
2018-03-16T07:14:45.001Z,8.49
2018-03-16T07:15:37.096Z,8.55
2018-03-16T07:16:11.140Z,8.41
2018-03-16T07:16:45.178Z,8.46
2018-03-16T07:17:19.260Z,8.40
2018-03-16T07:17:52.618Z,8.39
2018-03-16T07:18:26.672Z,8.26
2018-03-16T07:19:33.303Z,8.40
2018-03-16T07:20:06.616Z,8.46
2018-03-16T07:20:40.763Z,8.40
2018-03-16T07:21:14.816Z,8.36
2018-03-16T07:21:49.973Z,8.50
2018-03-16T07:22:24.037Z,8.50
2018-03-16T07:22:58.068Z,8.49
2018-03-16T07:23:31.384Z,8.52
2018-03-16T07:24:04.685Z,8.55
2018-03-16T07:24:37.990Z,8.57
2018-03-16T07:25:11.308Z,8.67
2018-03-16T07:25:45.438Z,8.72
2018-03-16T07:26:18.774Z,8.70
2018-03-16T07:26:52.195Z,8.64
2018-03-16T07:27:25.646Z,8.73
2018-03-16T07:27:59.120Z,8.63
2018-03-16T07:28:32.440Z,8.78
2018-03-16T07:29:05.737Z,8.76
2018-03-16T07:29:39.085Z,8.79
2018-03-16T07:30:12.570Z,8.80
2018-03-16T07:30:46.625Z,8.88
2018-03-16T07:31:20.688Z,8.90
2018-03-16T07:31:54.062Z,8.91
2018-03-16T07:32:29.221Z,8.97
2018-03-16T07:33:02.526Z,8.88
2018-03-16T07:33:35.814Z,8.84
2018-03-16T07:34:09.127Z,8.87
2018-03-16T07:34:43.289Z,8.86
2018-03-16T07:35:16.568Z,8.99
2018-03-16T07:35:49.860Z,9.09
2018-03-16T07:36:23.295Z,9.03
2018-03-16T07:36:56.581Z,9.06
2018-03-16T07:37:29.989Z,9.10
2018-03-16T07:38:03.316Z,9.02
2018-03-16T07:38:38.167Z,9.15
2018-03-16T07:39:11.500Z,9.10
2018-03-16T07:39:44.938Z,9.01
2018-03-16T07:40:18.238Z,9.06
2018-03-16T07:40:52.317Z,9.04
2018-03-16T07:41:25.638Z,9.05
2018-03-16T07:41:58.926Z,8.92
2018-03-16T07:42:32.185Z,8.91
2018-03-16T07:43:06.391Z,8.88
2018-03-16T07:43:40.478Z,9.02
2018-03-16T07:44:14.587Z,9.09
2018-03-16T07:44:47.882Z,9.06
2018-03-16T07:46:35.277Z,9.14
2018-03-16T07:47:10.246Z,9.15
2018-03-16T07:47:43.632Z,9.20
2018-03-16T07:48:17.758Z,9.26
2018-03-16T07:48:51.016Z,9.36
2018-03-16T07:49:27.173Z,9.39
2018-03-16T07:50:01.458Z,9.53
2018-03-16T07:50:36.293Z,9.54
2018-03-16T07:51:09.641Z,9.42
2018-03-16T07:51:43.022Z,9.60
2018-03-16T07:52:16.368Z,9.34
2018-03-16T07:52:51.542Z,9.38
2018-03-16T07:53:24.915Z,9.28
2018-03-16T07:53:58.336Z,9.35
2018-03-16T08:35:30.390Z,9.56
2018-03-16T08:36:04.848Z,9.52
2018-03-16T08:36:38.294Z,9.50
2018-03-16T08:37:11.682Z,9.52
2018-03-16T08:37:44.970Z,9.62
2018-03-16T08:38:19.113Z,9.70
2018-03-16T08:38:52.451Z,9.70
2018-03-16T08:39:26.549Z,9.66
2018-03-16T08:40:00.641Z,9.57
2018-03-16T08:40:33.932Z,9.71
2018-03-16T08:41:08.019Z,9.76
2018-03-16T08:41:41.305Z,9.74
2018-03-16T08:42:14.684Z,9.71
2018-03-16T08:42:48.015Z,9.78
2018-03-16T08:43:21.449Z,9.73
2018-03-16T08:43:54.760Z,9.93
2018-03-16T08:44:28.987Z,9.91
2018-03-16T08:45:02.305Z,9.86
2018-03-16T08:45:35.604Z,9.98
2018-03-16T08:46:08.926Z,10.04
2018-03-16T08:46:43.925Z,10.12
2018-03-16T08:47:18.099Z,10.19
2018-03-16T08:47:51.388Z,10.19
2018-03-16T08:48:25.481Z,10.20
2018-03-16T08:48:58.913Z,10.09
2018-03-16T08:49:32.312Z,10.20
2018-03-16T08:50:05.626Z,10.25
2018-03-16T08:50:38.991Z,10.18
2018-03-16T08:51:13.101Z,10.27
2018-03-16T08:51:47.061Z,10.31
2018-03-16T08:52:20.439Z,10.27
2018-03-16T08:52:53.774Z,10.37
2018-03-16T08:53:27.067Z,10.40
2018-03-16T08:54:00.367Z,10.41
2018-03-16T08:54:34.541Z,10.54
2018-03-16T08:55:08.592Z,10.61
2018-03-16T08:55:41.891Z,10.59
2018-03-16T08:56:15.195Z,10.61
2018-03-16T08:56:48.570Z,10.63
2018-03-16T08:57:21.903Z,10.59
2018-03-16T08:57:55.297Z,10.38
2018-03-16T08:58:28.780Z,10.18
2018-03-16T08:59:02.083Z,10.37
2018-03-16T08:59:36.214Z,10.38
2018-03-16T09:00:09.496Z,10.44
2018-03-16T09:00:43.031Z,10.58
2018-03-16T09:01:16.333Z,10.54
2018-03-16T09:01:49.694Z,10.68
2018-03-16T09:02:23.025Z,10.75
2018-03-16T09:02:57.319Z,10.80
2018-03-16T09:03:30.805Z,10.90
2018-03-16T09:04:04.130Z,10.93
2018-03-16T09:04:38.192Z,10.97
2018-03-16T09:05:11.456Z,10.99
2018-03-16T09:05:45.530Z,11.04
2018-03-16T09:06:18.892Z,11.18
2018-03-16T09:06:52.288Z,11.19
2018-03-16T09:07:25.597Z,11.22
2018-03-16T09:07:59.732Z,11.25
2018-03-16T09:08:33.669Z,10.99
2018-03-16T09:09:07.059Z,11.01
2018-03-16T09:09:41.149Z,11.04
2018-03-16T09:10:15.333Z,11.12
2018-03-16T09:10:48.747Z,11.20
2018-03-16T09:11:23.313Z,11.22
2018-03-16T09:11:56.611Z,11.31
2018-03-16T09:12:29.970Z,11.40
2018-03-16T09:13:04.025Z,11.52
2018-03-16T09:13:38.164Z,11.47
2018-03-16T09:14:11.569Z,11.35
2018-03-16T09:14:45.665Z,11.29
2018-03-16T09:15:19.782Z,11.11
2018-03-16T09:15:53.128Z,11.11
2018-03-16T09:16:26.545Z,11.13
2018-03-16T09:17:00.597Z,10.94
2018-03-16T09:17:34.660Z,11.13
2018-03-16T09:18:08.123Z,11.06
2018-03-16T09:18:41.378Z,11.05
2018-03-16T09:19:15.166Z,10.96
2018-03-16T09:19:48.470Z,10.97
2018-03-16T09:20:23.333Z,10.98
2018-03-16T09:20:56.617Z,11.04
2018-03-16T09:21:30.694Z,11.08
2018-03-16T09:22:05.205Z,11.15
2018-03-16T09:22:38.506Z,11.20
2018-03-16T09:23:12.644Z,11.36
2018-03-16T09:23:45.946Z,11.37
2018-03-16T09:24:20.121Z,11.34
2018-03-16T09:24:53.419Z,11.37
2018-03-16T09:25:27.545Z,11.46
2018-03-16T09:26:00.903Z,11.50
2018-03-16T09:26:34.964Z,11.65
2018-03-16T09:27:09.149Z,11.65
2018-03-16T09:27:43.269Z,11.78
2018-03-16T09:28:16.596Z,11.78
2018-03-16T09:28:50.648Z,11.78
2018-03-16T09:29:24.532Z,11.63
2018-03-16T09:29:58.615Z,11.68
2018-03-16T09:30:31.933Z,11.84
2018-03-16T09:31:05.234Z,11.86
2018-03-16T09:31:38.658Z,11.91
2018-03-16T09:32:11.956Z,11.86
2018-03-16T09:32:46.002Z,11.71
2018-03-16T09:33:20.060Z,11.80
2018-03-16T09:33:54.198Z,11.83
2018-03-16T09:34:28.256Z,11.77
2018-03-16T09:35:03.550Z,11.69
2018-03-16T09:35:36.949Z,11.81
2018-03-16T09:36:10.287Z,11.88
2018-03-16T09:36:43.569Z,11.88
2018-03-16T09:37:17.822Z,11.87
2018-03-16T09:37:51.916Z,11.87
2018-03-16T09:38:25.222Z,11.84
2018-03-16T09:38:59.302Z,11.96
2018-03-16T09:39:33.454Z,11.85
2018-03-16T09:40:07.524Z,11.80
2018-03-16T09:40:41.800Z,11.90
2018-03-16T09:41:15.238Z,12.04
2018-03-16T09:41:49.318Z,12.16
2018-03-16T09:42:22.665Z,12.12
2018-03-16T09:42:56.047Z,12.19
2018-03-16T09:43:29.410Z,12.26
2018-03-16T09:44:02.714Z,12.18
2018-03-16T09:44:37.735Z,12.26
2018-03-16T09:45:11.036Z,12.28
2018-03-16T09:45:45.171Z,12.18
2018-03-16T09:46:19.311Z,12.22
2018-03-16T09:46:52.701Z,12.18
2018-03-16T09:47:26.000Z,12.32
2018-03-16T09:48:00.037Z,12.38
2018-03-16T09:48:33.411Z,12.42
2018-03-16T09:49:06.713Z,12.49
2018-03-16T09:49:40.769Z,12.37
2018-03-16T09:50:14.864Z,12.51
2018-03-16T09:50:49.041Z,12.38
2018-03-16T09:51:23.664Z,12.53
2018-03-16T09:51:57.784Z,12.69
2018-03-16T09:52:31.833Z,12.65
2018-03-16T09:53:05.185Z,12.77
2018-03-16T09:53:39.846Z,12.69
2018-03-16T09:54:13.147Z,12.59
2018-03-16T09:55:04.256Z,12.56
2018-03-16T09:55:44.178Z,12.64
2018-03-16T09:56:18.379Z,12.67
2018-03-16T09:56:52.974Z,12.37
2018-03-16T09:57:26.364Z,12.53
2018-03-16T09:57:59.695Z,12.41
2018-03-16T09:58:33.836Z,12.33
2018-03-16T09:59:07.132Z,12.54
2018-03-16T09:59:41.207Z,12.63
2018-03-16T10:00:14.506Z,12.88
2018-03-16T10:00:48.547Z,12.88
2018-03-16T10:01:21.986Z,12.86
2018-03-16T10:01:55.383Z,12.70
2018-03-16T10:02:29.455Z,12.64
2018-03-16T10:03:03.991Z,12.69
2018-03-16T10:03:38.109Z,12.67
2018-03-16T10:04:11.505Z,12.72
2018-03-16T10:04:44.841Z,12.59
2018-03-16T10:05:18.194Z,12.58
2018-03-16T10:05:52.393Z,12.65
2018-03-16T10:06:27.589Z,12.32
2018-03-16T10:07:01.630Z,12.37
2018-03-16T10:07:35.039Z,12.54
2018-03-16T10:08:08.350Z,12.43
2018-03-16T10:08:42.469Z,12.24
2018-03-16T10:09:15.796Z,12.38
2018-03-16T10:09:49.212Z,12.48
2018-03-16T10:10:23.317Z,12.51
2018-03-16T10:10:56.856Z,12.48
2018-03-16T10:11:30.248Z,12.60
2018-03-16T10:12:03.584Z,12.78
2018-03-16T10:12:36.920Z,12.85
2018-03-16T10:13:11.203Z,12.88
2018-03-16T10:13:45.257Z,12.66
2018-03-16T10:14:20.416Z,12.89
2018-03-16T10:14:54.499Z,12.93
2018-03-16T10:15:27.836Z,12.73
2018-03-16T10:16:01.194Z,12.74
2018-03-16T10:16:34.504Z,12.77
2018-03-16T10:17:08.630Z,12.79
2018-03-16T10:17:42.651Z,12.71
2018-03-16T10:18:26.979Z,12.85
2018-03-16T10:19:00.326Z,12.26
2018-03-16T10:19:34.526Z,12.52
2018-03-16T10:20:10.388Z,12.59
2018-03-16T10:20:44.449Z,12.68
2018-03-16T10:21:17.956Z,12.16
2018-03-16T10:21:54.252Z,12.27
2018-03-16T10:22:28.444Z,12.38
2018-03-16T10:23:01.774Z,12.48
2018-03-16T10:23:35.080Z,12.43
2018-03-16T10:24:09.154Z,12.38
2018-03-16T10:24:42.441Z,12.06
2018-03-16T10:25:15.748Z,11.85
2018-03-16T10:25:49.829Z,12.14
2018-03-16T10:26:23.122Z,12.21
2018-03-16T10:26:57.216Z,12.24
2018-03-16T10:27:32.747Z,12.34
2018-03-16T10:28:06.081Z,12.23
2018-03-16T10:28:40.899Z,12.40
2018-03-16T10:29:14.969Z,12.39
2018-03-16T10:29:48.413Z,12.43
2018-03-16T10:30:21.797Z,12.37
2018-03-16T10:30:56.184Z,12.35
2018-03-16T10:31:31.582Z,12.45
2018-03-16T10:32:04.892Z,12.63
2018-03-16T10:32:38.226Z,12.60
2018-03-16T10:33:11.530Z,12.55
2018-03-16T10:33:44.855Z,12.58
2018-03-16T10:34:18.192Z,12.37
2018-03-16T10:34:51.612Z,12.54
2018-03-16T10:35:27.951Z,12.22
2018-03-16T10:36:02.306Z,12.39
2018-03-16T10:36:36.473Z,12.38
2018-03-16T10:37:09.837Z,12.69
2018-03-16T10:37:43.970Z,12.56
2018-03-16T10:38:17.280Z,12.67
2018-03-16T10:38:51.393Z,12.65
2018-03-16T10:39:24.768Z,12.63
2018-03-16T10:39:58.097Z,12.68
2018-03-16T10:40:31.459Z,12.60
2018-03-16T10:41:06.642Z,12.57
2018-03-16T10:41:41.952Z,12.64
2018-03-16T10:42:15.334Z,12.53
2018-03-16T10:42:48.676Z,12.64
2018-03-16T10:43:22.662Z,12.61
2018-03-16T10:43:56.127Z,12.86
2018-03-16T10:44:30.198Z,12.94
2018-03-16T10:45:03.703Z,12.95
2018-03-16T10:45:39.009Z,12.95
2018-03-16T10:46:12.320Z,13.06
2018-03-16T10:46:46.376Z,13.10
2018-03-16T10:47:19.669Z,13.04
2018-03-16T10:47:52.977Z,13.22
2018-03-16T10:48:27.057Z,13.06
2018-03-16T10:49:01.021Z,13.00
2018-03-16T10:49:34.440Z,12.86
2018-03-16T10:50:07.867Z,12.76
2018-03-16T10:50:41.277Z,12.66
2018-03-16T10:51:15.425Z,12.74
2018-03-16T10:51:49.725Z,12.47
2018-03-16T10:52:25.188Z,12.60
2018-03-16T10:52:58.572Z,12.59
2018-03-16T10:53:31.906Z,12.63
2018-03-16T10:54:05.246Z,12.43
2018-03-16T10:54:38.720Z,12.45
2018-03-16T10:55:13.182Z,12.50
2018-03-16T10:55:48.236Z,12.25
2018-03-16T10:56:22.350Z,12.13
2018-03-16T10:56:55.674Z,12.20
2018-03-16T10:57:29.768Z,12.21
2018-03-16T10:58:03.277Z,12.27
2018-03-16T10:58:36.577Z,12.32
2018-03-16T10:59:10.685Z,12.39
2018-03-16T10:59:44.465Z,12.42
2018-03-16T11:00:23.985Z,12.49
2018-03-16T11:00:59.846Z,12.61
2018-03-16T11:01:38.641Z,12.39
2018-03-16T11:02:18.188Z,12.59
2018-03-16T11:02:51.504Z,12.61
2018-03-16T11:03:25.683Z,12.62
2018-03-16T11:03:59.781Z,12.68
2018-03-16T11:04:38.747Z,12.79
2018-03-16T11:05:17.536Z,12.74
2018-03-16T11:05:55.553Z,12.75
2018-03-16T11:06:34.863Z,12.61
2018-03-16T11:07:09.048Z,12.64
2018-03-16T11:07:44.123Z,12.58
2018-03-16T11:08:23.767Z,12.54
2018-03-16T11:08:57.187Z,12.43
2018-03-16T11:09:31.383Z,12.53
2018-03-16T11:10:04.715Z,12.48
2018-03-16T11:10:38.149Z,12.46
2018-03-16T11:11:12.277Z,12.55
2018-03-16T11:11:46.382Z,12.44
2018-03-16T11:12:20.432Z,12.47
2018-03-16T11:12:53.902Z,12.41
2018-03-16T11:13:27.200Z,12.30
2018-03-16T11:14:01.187Z,12.31
2018-03-16T11:14:34.478Z,12.22
2018-03-16T11:15:08.688Z,11.98
2018-03-16T11:15:42.778Z,12.05
2018-03-16T11:16:16.106Z,12.06
2018-03-16T11:16:49.498Z,12.08
2018-03-16T11:17:23.578Z,11.96
2018-03-16T11:17:56.931Z,11.90
2018-03-16T11:18:30.291Z,11.98
2018-03-16T11:19:03.619Z,12.03
2018-03-16T11:19:36.959Z,12.12
2018-03-16T11:20:10.913Z,12.16
2018-03-16T11:20:45.263Z,12.04
2018-03-16T11:21:19.729Z,11.71
2018-03-16T11:21:53.845Z,11.90
2018-03-16T11:22:27.918Z,11.92
2018-03-16T11:23:01.350Z,12.03
2018-03-16T11:23:35.501Z,11.64
2018-03-16T11:24:08.854Z,11.58
2018-03-16T11:24:43.012Z,11.60
2018-03-16T11:25:16.441Z,11.65
2018-03-16T11:25:50.597Z,11.70
2018-03-16T11:26:24.962Z,11.63
2018-03-16T11:26:58.549Z,11.46
2018-03-16T11:27:31.991Z,11.35
2018-03-16T11:28:06.247Z,11.40
2018-03-16T11:28:39.644Z,11.49
2018-03-16T11:29:13.051Z,11.47
2018-03-16T11:29:47.127Z,11.60
2018-03-16T11:30:21.245Z,11.46
2018-03-16T11:30:54.711Z,11.43
2018-03-16T11:31:29.298Z,11.51
2018-03-16T11:32:02.755Z,11.58
2018-03-16T11:32:36.141Z,11.71
2018-03-16T11:33:10.647Z,11.59
2018-03-16T11:33:44.170Z,11.56
2018-03-16T11:34:17.708Z,11.82
2018-03-16T11:34:51.064Z,11.66
2018-03-16T11:35:24.412Z,11.78
2018-03-16T11:35:58.636Z,11.65
2018-03-16T11:36:32.895Z,11.65
2018-03-16T11:37:06.395Z,11.64
2018-03-16T11:37:40.554Z,11.71
2018-03-16T11:38:14.676Z,11.74
2018-03-16T11:38:56.808Z,11.72
2018-03-16T11:39:30.231Z,11.66
2018-03-16T11:40:04.390Z,11.71
2018-03-16T11:40:38.594Z,11.64
2018-03-16T11:41:13.015Z,11.69
2018-03-16T11:41:46.464Z,11.85
2018-03-16T11:42:20.616Z,11.85
2018-03-16T11:42:54.770Z,11.61
2018-03-16T11:43:28.159Z,11.51
2018-03-16T11:44:02.475Z,11.55
2018-03-16T11:44:36.801Z,11.42
2018-03-16T11:45:11.002Z,11.45
2018-03-16T11:45:44.387Z,11.56
2018-03-16T11:46:18.651Z,11.53
2018-03-16T11:46:56.040Z,11.63
2018-03-16T11:47:30.186Z,11.78
2018-03-16T11:48:04.353Z,11.72
2018-03-16T11:48:38.080Z,11.85
2018-03-16T11:49:12.564Z,11.97
2018-03-16T11:49:45.874Z,12.13
2018-03-16T11:50:19.321Z,12.10
2018-03-16T11:50:52.716Z,12.09
2018-03-16T11:51:28.157Z,12.04
2018-03-16T11:52:02.305Z,11.98
2018-03-16T11:52:35.842Z,12.11
2018-03-16T11:53:09.291Z,12.05
2018-03-16T11:53:42.663Z,11.93
2018-03-16T11:54:16.230Z,11.89
2018-03-16T11:54:49.897Z,11.93
2018-03-16T11:55:24.107Z,11.99
2018-03-16T11:55:58.651Z,12.17
2018-03-16T11:56:32.917Z,12.09
2018-03-16T11:57:07.301Z,12.11
2018-03-16T11:57:40.833Z,12.14
2018-03-16T11:58:15.316Z,12.17
2018-03-16T11:58:49.631Z,12.27
2018-03-16T11:59:23.110Z,12.31
2018-03-16T11:59:57.506Z,12.35
2018-03-16T12:00:31.690Z,12.39
2018-03-16T12:01:05.363Z,12.36
2018-03-16T12:01:38.800Z,12.38
2018-03-16T12:02:13.136Z,12.39
2018-03-16T12:02:47.311Z,12.57
2018-03-16T12:03:20.906Z,12.57
2018-03-16T12:03:54.292Z,12.61
2018-03-16T12:04:27.760Z,12.63
2018-03-16T12:05:01.934Z,12.80
2018-03-16T12:05:36.112Z,12.79
2018-03-16T12:06:10.224Z,12.91
2018-03-16T12:06:43.632Z,12.96
2018-03-16T12:07:17.098Z,12.98
2018-03-16T12:07:51.268Z,13.14
2018-03-16T12:08:25.406Z,13.19
2018-03-16T12:08:58.825Z,12.93
2018-03-16T12:09:32.343Z,12.96
2018-03-16T12:10:05.772Z,13.08
2018-03-16T12:10:39.095Z,13.15
2018-03-16T12:11:12.662Z,13.17
2018-03-16T12:11:46.915Z,13.21
2018-03-16T12:12:20.439Z,13.19
2018-03-16T12:12:55.432Z,13.16
2018-03-16T12:13:28.886Z,13.28
2018-03-16T12:14:02.215Z,13.19
2018-03-16T12:14:37.354Z,13.34
2018-03-16T12:15:11.444Z,13.34
2018-03-16T12:15:45.600Z,13.28
2018-03-16T12:16:20.699Z,13.14
2018-03-16T12:16:54.037Z,13.20
2018-03-16T12:17:28.294Z,13.26
2018-03-16T12:18:01.724Z,13.18
2018-03-16T12:18:35.114Z,13.22
2018-03-16T12:19:08.502Z,13.15
2018-03-16T12:19:42.647Z,13.19
2018-03-16T12:20:16.393Z,12.78
2018-03-16T12:20:49.743Z,12.62
2018-03-16T12:21:23.109Z,12.83
2018-03-16T12:21:56.512Z,12.94
2018-03-16T12:22:29.840Z,13.04
2018-03-16T12:23:03.909Z,13.06
2018-03-16T12:23:37.304Z,13.11
2018-03-16T12:24:10.633Z,13.22
2018-03-16T12:24:44.757Z,13.21
2018-03-16T12:25:18.171Z,13.24
2018-03-16T12:25:51.557Z,13.29
2018-03-16T12:26:25.728Z,13.30
2018-03-16T12:26:59.087Z,13.24
2018-03-16T12:27:33.259Z,13.43
2018-03-16T12:28:06.680Z,13.55
2018-03-16T12:28:49.753Z,13.38
2018-03-16T12:29:13.382Z,13.38
2018-03-16T12:29:46.769Z,13.38
2018-03-16T12:30:21.022Z,13.55
2018-03-16T12:30:54.432Z,13.40
2018-03-16T12:31:28.029Z,13.52
2018-03-16T12:32:01.473Z,13.51
2018-03-16T12:32:35.822Z,13.62
2018-03-16T12:33:09.237Z,13.82
2018-03-16T12:33:42.681Z,13.85
2018-03-16T12:34:16.094Z,13.93
2018-03-16T12:34:50.286Z,14.08
2018-03-16T12:35:23.668Z,13.94
2018-03-16T12:35:57.076Z,13.88
2018-03-16T12:36:31.257Z,13.77
2018-03-16T12:37:05.396Z,13.93
2018-03-16T12:37:38.967Z,14.03
2018-03-16T12:38:12.437Z,14.19
2018-03-16T12:38:47.610Z,14.32
2018-03-16T12:39:21.792Z,14.48
2018-03-16T12:39:55.218Z,14.56
2018-03-16T12:40:28.670Z,14.54
2018-03-16T12:41:02.882Z,14.77
2018-03-16T12:41:37.154Z,14.91
2018-03-16T12:42:11.519Z,14.98
2018-03-16T12:42:44.939Z,15.13
2018-03-16T12:43:19.088Z,15.23
2018-03-16T12:43:53.335Z,15.31
2018-03-16T12:44:27.539Z,15.21
2018-03-16T12:45:01.676Z,15.19
2018-03-16T12:45:35.141Z,15.15
2018-03-16T12:46:08.525Z,15.01
2018-03-16T12:46:41.937Z,14.90
2018-03-16T12:47:16.344Z,15.24
2018-03-16T12:47:50.511Z,15.34
2018-03-16T12:48:29.083Z,15.16
2018-03-16T12:49:02.760Z,14.92
2018-03-16T12:49:36.462Z,14.91
2018-03-16T12:55:15.829Z,14.37
2018-03-16T12:55:49.241Z,14.38
2018-03-16T12:56:22.673Z,14.61
2018-03-16T12:56:56.811Z,14.63
2018-03-16T12:57:30.178Z,14.84
2018-03-16T12:58:04.327Z,14.91
2018-03-16T12:58:37.713Z,14.88
2018-03-16T12:59:11.047Z,14.63
2018-03-16T12:59:44.451Z,14.77
2018-03-16T13:00:18.700Z,14.70
2018-03-16T13:00:52.883Z,14.45
2018-03-16T13:01:26.269Z,14.42
2018-03-16T13:01:59.673Z,14.42
2018-03-16T13:02:33.891Z,14.51
2018-03-16T13:03:07.332Z,14.55
2018-03-16T13:03:40.818Z,14.64
2018-03-16T13:04:15.037Z,14.20
2018-03-16T13:04:49.273Z,14.28
2018-03-16T13:05:22.651Z,14.13
2018-03-16T13:05:55.994Z,14.04
2018-03-16T13:06:29.346Z,14.01
2018-03-16T13:07:03.482Z,14.10
2018-03-16T13:07:37.612Z,13.75
2018-03-16T13:08:10.972Z,13.79
2018-03-16T13:08:44.328Z,13.73
2018-03-16T13:09:17.669Z,13.90
2018-03-16T13:09:51.121Z,13.90
2018-03-16T13:10:24.463Z,13.94
2018-03-16T13:10:58.618Z,14.04
2018-03-16T13:11:32.099Z,14.21
2018-03-16T13:12:06.280Z,14.18
2018-03-16T13:12:39.673Z,14.30
2018-03-16T13:13:13.812Z,14.24
2018-03-16T13:13:49.633Z,14.32
2018-03-16T13:14:23.046Z,14.53
2018-03-16T13:14:58.222Z,14.52
2018-03-16T13:15:32.483Z,14.71
2018-03-16T13:16:06.708Z,14.87
2018-03-16T13:16:40.216Z,14.58
2018-03-16T13:17:14.396Z,14.79
2018-03-16T13:17:48.551Z,14.78
2018-03-16T13:18:22.008Z,14.75
2018-03-16T13:18:56.251Z,14.88
2018-03-16T13:19:29.652Z,14.90
2018-03-16T13:20:03.106Z,14.87
2018-03-16T13:20:36.474Z,15.10
2018-03-16T13:21:10.643Z,15.05
2018-03-16T13:21:45.173Z,15.18
2018-03-16T13:22:19.317Z,15.28
2018-03-16T13:22:52.696Z,15.32
2018-03-16T13:23:26.200Z,15.10
2018-03-16T13:23:59.530Z,15.45
2018-03-16T13:24:33.627Z,15.38
2018-03-16T13:25:07.690Z,15.53
2018-03-16T13:25:40.987Z,15.50
2018-03-16T13:26:14.326Z,15.24
2018-03-16T13:26:47.617Z,15.13
2018-03-16T13:27:21.749Z,15.13
2018-03-16T13:27:55.143Z,15.04
2018-03-16T13:28:29.457Z,15.31
2018-03-16T13:29:03.501Z,15.35
2018-03-16T13:29:37.570Z,15.48
2018-03-16T13:30:10.922Z,15.51
2018-03-16T13:30:44.226Z,15.39
2018-03-16T13:31:17.567Z,15.63
2018-03-16T13:31:50.902Z,15.49
2018-03-16T13:32:24.233Z,15.34
2018-03-16T13:32:57.583Z,15.35